sensor_id;sensor_type;location;lat;lon;timestamp;P1;durP1;ratioP1;P2;durP2;ratioP2
23050;SDS011;11693;51.358;12.410;2022-11-18T00:01:35;0.10;;;0.10;;
23050;SDS011;11693;51.358;12.410;2022-11-18T00:04:01;0.00;;;0.00;;
23050;SDS011;11693;51.358;12.410;2022-11-18T00:06:27;0.10;;;0.10;;
23050;SDS011;11693;51.358;12.410;2022-11-18T00:08:54;0.10;;;0.10;;
23050;SDS011;11693;51.358;12.410;2022-11-18T00:11:21;0.10;;;0.10;;
23050;SDS011;11693;51.358;12.410;2022-11-18T00:14:11;0.10;;;0.10;;
23050;SDS011;11693;51.358;12.410;2022-11-18T00:16:51;0.10;;;0.10;;
23050;SDS011;11693;51.358;12.410;2022-11-18T00:19:20;0.10;;;0.10;;
23050;SDS011;11693;51.358;12.410;2022-11-18T00:21:48;0.10;;;0.10;;
23050;SDS011;11693;51.358;12.410;2022-11-18T00:24:14;0.10;;;0.10;;
23050;SDS011;11693;51.358;12.410;2022-11-18T00:26:39;0.10;;;0.10;;
23050;SDS011;11693;51.358;12.410;2022-11-18T00:29:05;0.10;;;0.10;;
23050;SDS011;11693;51.358;12.410;2022-11-18T00:31:36;0.10;;;0.10;;
23050;SDS011;11693;51.358;12.410;2022-11-18T00:34:02;0.10;;;0.10;;
23050;SDS011;11693;51.358;12.410;2022-11-18T00:36:28;0.10;;;0.10;;
23050;SDS011;11693;51.358;12.410;2022-11-18T00:38:54;0.10;;;0.10;;
23050;SDS011;11693;51.358;12.410;2022-11-18T00:41:20;0.10;;;0.10;;
23050;SDS011;11693;51.358;12.410;2022-11-18T00:43:46;0.10;;;0.10;;
23050;SDS011;11693;51.358;12.410;2022-11-18T00:46:12;0.10;;;0.10;;
23050;SDS011;11693;51.358;12.410;2022-11-18T00:48:38;0.10;;;0.10;;
23050;SDS011;11693;51.358;12.410;2022-11-18T00:51:14;0.10;;;0.10;;
23050;SDS011;11693;51.358;12.410;2022-11-18T00:53:41;0.10;;;0.10;;
23050;SDS011;11693;51.358;12.410;2022-11-18T00:56:07;0.10;;;0.10;;
23050;SDS011;11693;51.358;12.410;2022-11-18T00:58:34;0.10;;;0.10;;
23050;SDS011;11693;51.358;12.410;2022-11-18T01:01:00;0.00;;;0.00;;
23050;SDS011;11693;51.358;12.410;2022-11-18T01:03:27;0.00;;;0.00;;
23050;SDS011;11693;51.358;12.410;2022-11-18T01:05:53;0.10;;;0.10;;
23050;SDS011;11693;51.358;12.410;2022-11-18T01:08:19;0.10;;;0.10;;
23050;SDS011;11693;51.358;12.410;2022-11-18T01:10:45;0.10;;;0.10;;
23050;SDS011;11693;51.358;12.410;2022-11-18T01:13:13;0.10;;;0.10;;
23050;SDS011;11693;51.358;12.410;2022-11-18T01:15:44;0.10;;;0.10;;
23050;SDS011;11693;51.358;12.410;2022-11-18T01:18:18;0.10;;;0.10;;
23050;SDS011;11693;51.358;12.410;2022-11-18T01:20:46;0.10;;;0.10;;
23050;SDS011;11693;51.358;12.410;2022-11-18T01:23:12;0.10;;;0.10;;
23050;SDS011;11693;51.358;12.410;2022-11-18T01:25:39;0.10;;;0.10;;
23050;SDS011;11693;51.358;12.410;2022-11-18T01:28:06;0.10;;;0.10;;
23050;SDS011;11693;51.358;12.410;2022-11-18T01:30:33;0.10;;;0.10;;
23050;SDS011;11693;51.358;12.410;2022-11-18T01:33:03;0.10;;;0.10;;
23050;SDS011;11693;51.358;12.410;2022-11-18T01:35:38;0.10;;;0.10;;
23050;SDS011;11693;51.358;12.410;2022-11-18T01:38:06;0.10;;;0.10;;
23050;SDS011;11693;51.358;12.410;2022-11-18T01:40:34;0.10;;;0.10;;
23050;SDS011;11693;51.358;12.410;2022-11-18T01:43:00;0.10;;;0.10;;
23050;SDS011;11693;51.358;12.410;2022-11-18T01:45:33;0.10;;;0.10;;
23050;SDS011;11693;51.358;12.410;2022-11-18T01:53:42;0.10;;;0.10;;
23050;SDS011;11693;51.358;12.410;2022-11-18T01:56:19;0.10;;;0.10;;
23050;SDS011;11693;51.358;12.410;2022-11-18T01:58:49;0.10;;;0.10;;
23050;SDS011;11693;51.358;12.410;2022-11-18T02:01:19;0.10;;;0.10;;
23050;SDS011;11693;51.358;12.410;2022-11-18T02:03:45;0.10;;;0.10;;
23050;SDS011;11693;51.358;12.410;2022-11-18T02:06:12;0.10;;;0.10;;
23050;SDS011;11693;51.358;12.410;2022-11-18T02:08:38;0.00;;;0.00;;
23050;SDS011;11693;51.358;12.410;2022-11-18T02:11:08;0.10;;;0.10;;
23050;SDS011;11693;51.358;12.410;2022-11-18T02:13:55;0.10;;;0.10;;
23050;SDS011;11693;51.358;12.410;2022-11-18T02:16:23;0.10;;;0.10;;
23050;SDS011;11693;51.358;12.410;2022-11-18T02:19:00;0.00;;;0.00;;
23050;SDS011;11693;51.358;12.410;2022-11-18T02:30:25;0.10;;;0.10;;
23050;SDS011;11693;51.358;12.410;2022-11-18T02:38:10;0.10;;;0.10;;
23050;SDS011;11693;51.358;12.410;2022-11-18T02:40:42;0.10;;;0.10;;
23050;SDS011;11693;51.358;12.410;2022-11-18T02:43:18;0.10;;;0.10;;
23050;SDS011;11693;51.358;12.410;2022-11-18T02:45:45;0.10;;;0.10;;
23050;SDS011;11693;51.358;12.410;2022-11-18T02:48:14;0.10;;;0.10;;
23050;SDS011;11693;51.358;12.410;2022-11-18T02:50:43;0.10;;;0.10;;
23050;SDS011;11693;51.358;12.410;2022-11-18T02:53:12;0.10;;;0.10;;
23050;SDS011;11693;51.358;12.410;2022-11-18T02:55:40;0.10;;;0.10;;
23050;SDS011;11693;51.358;12.410;2022-11-18T02:58:08;0.10;;;0.10;;
23050;SDS011;11693;51.358;12.410;2022-11-18T03:00:35;0.10;;;0.10;;
23050;SDS011;11693;51.358;12.410;2022-11-18T03:03:12;0.10;;;0.10;;
23050;SDS011;11693;51.358;12.410;2022-11-18T03:05:51;0.10;;;0.10;;
23050;SDS011;11693;51.358;12.410;2022-11-18T03:09:15;0.10;;;0.10;;
23050;SDS011;11693;51.358;12.410;2022-11-18T03:11:39;0.10;;;0.10;;
23050;SDS011;11693;51.358;12.410;2022-11-18T03:16:57;0.10;;;0.10;;
23050;SDS011;11693;51.358;12.410;2022-11-18T03:25:22;0.10;;;0.10;;
23050;SDS011;11693;51.358;12.410;2022-11-18T03:28:24;0.10;;;0.10;;
23050;SDS011;11693;51.358;12.410;2022-11-18T03:31:38;0.10;;;0.10;;
23050;SDS011;11693;51.358;12.410;2022-11-18T03:33:38;0.10;;;0.10;;
23050;SDS011;11693;51.358;12.410;2022-11-18T03:36:08;0.10;;;0.10;;
23050;SDS011;11693;51.358;12.410;2022-11-18T03:38:37;0.10;;;0.10;;
23050;SDS011;11693;51.358;12.410;2022-11-18T03:41:07;0.10;;;0.10;;
23050;SDS011;11693;51.358;12.410;2022-11-18T03:43:36;0.10;;;0.10;;
23050;SDS011;11693;51.358;12.410;2022-11-18T03:46:10;0.10;;;0.10;;
23050;SDS011;11693;51.358;12.410;2022-11-18T03:49:03;0.10;;;0.10;;
23050;SDS011;11693;51.358;12.410;2022-11-18T03:51:40;0.10;;;0.10;;
23050;SDS011;11693;51.358;12.410;2022-11-18T03:54:18;0.10;;;0.10;;
23050;SDS011;11693;51.358;12.410;2022-11-18T03:57:02;0.10;;;0.10;;
23050;SDS011;11693;51.358;12.410;2022-11-18T03:59:41;0.10;;;0.10;;
23050;SDS011;11693;51.358;12.410;2022-11-18T04:02:27;0.10;;;0.10;;
23050;SDS011;11693;51.358;12.410;2022-11-18T04:04:54;0.10;;;0.10;;
23050;SDS011;11693;51.358;12.410;2022-11-18T04:10:32;0.10;;;0.10;;
23050;SDS011;11693;51.358;12.410;2022-11-18T04:13:06;0.10;;;0.10;;
23050;SDS011;11693;51.358;12.410;2022-11-18T04:15:42;0.10;;;0.10;;
23050;SDS011;11693;51.358;12.410;2022-11-18T04:18:08;0.10;;;0.10;;
23050;SDS011;11693;51.358;12.410;2022-11-18T04:20:34;0.10;;;0.10;;
23050;SDS011;11693;51.358;12.410;2022-11-18T04:23:01;0.10;;;0.10;;
23050;SDS011;11693;51.358;12.410;2022-11-18T04:25:28;0.10;;;0.10;;
23050;SDS011;11693;51.358;12.410;2022-11-18T04:27:54;0.10;;;0.10;;
23050;SDS011;11693;51.358;12.410;2022-11-18T04:30:20;0.10;;;0.10;;
23050;SDS011;11693;51.358;12.410;2022-11-18T04:32:46;0.10;;;0.10;;
23050;SDS011;11693;51.358;12.410;2022-11-18T04:35:12;0.10;;;0.10;;
23050;SDS011;11693;51.358;12.410;2022-11-18T04:37:37;0.10;;;0.10;;
23050;SDS011;11693;51.358;12.410;2022-11-18T04:40:03;0.10;;;0.10;;
23050;SDS011;11693;51.358;12.410;2022-11-18T04:42:29;0.10;;;0.10;;
23050;SDS011;11693;51.358;12.410;2022-11-18T04:44:55;0.10;;;0.10;;
23050;SDS011;11693;51.358;12.410;2022-11-18T04:47:21;0.10;;;0.10;;
23050;SDS011;11693;51.358;12.410;2022-11-18T04:49:46;0.10;;;0.10;;
23050;SDS011;11693;51.358;12.410;2022-11-18T04:52:12;0.10;;;0.10;;
23050;SDS011;11693;51.358;12.410;2022-11-18T04:54:38;0.10;;;0.10;;
23050;SDS011;11693;51.358;12.410;2022-11-18T04:57:03;0.10;;;0.10;;
23050;SDS011;11693;51.358;12.410;2022-11-18T04:59:29;0.10;;;0.10;;
23050;SDS011;11693;51.358;12.410;2022-11-18T05:01:55;0.10;;;0.10;;
23050;SDS011;11693;51.358;12.410;2022-11-18T05:04:22;0.10;;;0.10;;
23050;SDS011;11693;51.358;12.410;2022-11-18T05:06:50;0.10;;;0.10;;
23050;SDS011;11693;51.358;12.410;2022-11-18T05:09:16;0.10;;;0.10;;
23050;SDS011;11693;51.358;12.410;2022-11-18T05:11:43;0.10;;;0.10;;
23050;SDS011;11693;51.358;12.410;2022-11-18T05:14:28;0.17;;;0.17;;
23050;SDS011;11693;51.358;12.410;2022-11-18T05:16:54;0.20;;;0.20;;
23050;SDS011;11693;51.358;12.410;2022-11-18T05:19:21;0.20;;;0.20;;
23050;SDS011;11693;51.358;12.410;2022-11-18T05:21:47;0.10;;;0.10;;
23050;SDS011;11693;51.358;12.410;2022-11-18T05:24:13;0.10;;;0.10;;
23050;SDS011;11693;51.358;12.410;2022-11-18T05:26:39;0.10;;;0.10;;
23050;SDS011;11693;51.358;12.410;2022-11-18T05:29:04;0.20;;;0.20;;
23050;SDS011;11693;51.358;12.410;2022-11-18T05:31:30;0.20;;;0.20;;
23050;SDS011;11693;51.358;12.410;2022-11-18T05:33:56;0.10;;;0.10;;
23050;SDS011;11693;51.358;12.410;2022-11-18T05:36:22;0.10;;;0.10;;
23050;SDS011;11693;51.358;12.410;2022-11-18T05:38:48;0.10;;;0.10;;
23050;SDS011;11693;51.358;12.410;2022-11-18T05:41:14;0.10;;;0.10;;
23050;SDS011;11693;51.358;12.410;2022-11-18T05:43:59;0.10;;;0.10;;
23050;SDS011;11693;51.358;12.410;2022-11-18T05:46:25;0.10;;;0.10;;
23050;SDS011;11693;51.358;12.410;2022-11-18T05:48:50;0.10;;;0.10;;
23050;SDS011;11693;51.358;12.410;2022-11-18T05:51:16;0.10;;;0.10;;
23050;SDS011;11693;51.358;12.410;2022-11-18T05:53:42;0.10;;;0.10;;
23050;SDS011;11693;51.358;12.410;2022-11-18T05:58:44;0.20;;;0.20;;
23050;SDS011;11693;51.358;12.410;2022-11-18T06:01:10;0.13;;;0.13;;
23050;SDS011;11693;51.358;12.410;2022-11-18T06:03:41;0.20;;;0.20;;
23050;SDS011;11693;51.358;12.410;2022-11-18T06:06:07;0.20;;;0.20;;
23050;SDS011;11693;51.358;12.410;2022-11-18T06:08:35;0.20;;;0.20;;
23050;SDS011;11693;51.358;12.410;2022-11-18T06:11:04;0.20;;;0.20;;
23050;SDS011;11693;51.358;12.410;2022-11-18T06:13:33;0.20;;;0.20;;
23050;SDS011;11693;51.358;12.410;2022-11-18T06:16:03;0.20;;;0.20;;
23050;SDS011;11693;51.358;12.410;2022-11-18T06:18:30;0.17;;;0.17;;
23050;SDS011;11693;51.358;12.410;2022-11-18T06:20:57;0.20;;;0.20;;
23050;SDS011;11693;51.358;12.410;2022-11-18T06:23:26;0.20;;;0.20;;
23050;SDS011;11693;51.358;12.410;2022-11-18T06:25:55;0.20;;;0.20;;
23050;SDS011;11693;51.358;12.410;2022-11-18T06:28:20;0.20;;;0.20;;
23050;SDS011;11693;51.358;12.410;2022-11-18T06:30:47;0.20;;;0.20;;
23050;SDS011;11693;51.358;12.410;2022-11-18T06:33:13;0.20;;;0.20;;
23050;SDS011;11693;51.358;12.410;2022-11-18T06:35:38;0.20;;;0.20;;
23050;SDS011;11693;51.358;12.410;2022-11-18T06:38:05;0.20;;;0.20;;
23050;SDS011;11693;51.358;12.410;2022-11-18T06:40:31;0.13;;;0.13;;
23050;SDS011;11693;51.358;12.410;2022-11-18T06:42:57;0.20;;;0.20;;
23050;SDS011;11693;51.358;12.410;2022-11-18T06:45:40;0.20;;;0.20;;
23050;SDS011;11693;51.358;12.410;2022-11-18T06:48:26;0.20;;;0.20;;
23050;SDS011;11693;51.358;12.410;2022-11-18T06:50:52;0.10;;;0.10;;
23050;SDS011;11693;51.358;12.410;2022-11-18T06:53:17;0.10;;;0.10;;
23050;SDS011;11693;51.358;12.410;2022-11-18T06:55:43;0.10;;;0.10;;
23050;SDS011;11693;51.358;12.410;2022-11-18T06:58:08;0.20;;;0.20;;
23050;SDS011;11693;51.358;12.410;2022-11-18T07:00:34;0.20;;;0.20;;
23050;SDS011;11693;51.358;12.410;2022-11-18T07:03:01;0.20;;;0.20;;
23050;SDS011;11693;51.358;12.410;2022-11-18T07:05:26;0.10;;;0.10;;
23050;SDS011;11693;51.358;12.410;2022-11-18T07:07:52;0.20;;;0.20;;
23050;SDS011;11693;51.358;12.410;2022-11-18T07:10:17;0.20;;;0.20;;
23050;SDS011;11693;51.358;12.410;2022-11-18T07:12:43;0.20;;;0.20;;
23050;SDS011;11693;51.358;12.410;2022-11-18T07:15:09;0.17;;;0.17;;
23050;SDS011;11693;51.358;12.410;2022-11-18T07:17:35;0.20;;;0.20;;
23050;SDS011;11693;51.358;12.410;2022-11-18T07:20:00;0.13;;;0.13;;
23050;SDS011;11693;51.358;12.410;2022-11-18T07:22:26;0.20;;;0.20;;
23050;SDS011;11693;51.358;12.410;2022-11-18T07:24:52;0.20;;;0.20;;
23050;SDS011;11693;51.358;12.410;2022-11-18T07:27:17;0.20;;;0.20;;
23050;SDS011;11693;51.358;12.410;2022-11-18T07:29:43;0.20;;;0.20;;
23050;SDS011;11693;51.358;12.410;2022-11-18T07:32:09;0.15;;;0.15;;
23050;SDS011;11693;51.358;12.410;2022-11-18T07:34:34;0.10;;;0.10;;
23050;SDS011;11693;51.358;12.410;2022-11-18T07:37:00;0.20;;;0.20;;
23050;SDS011;11693;51.358;12.410;2022-11-18T07:39:25;0.10;;;0.10;;
23050;SDS011;11693;51.358;12.410;2022-11-18T07:41:51;0.10;;;0.10;;
23050;SDS011;11693;51.358;12.410;2022-11-18T07:44:17;0.10;;;0.10;;
23050;SDS011;11693;51.358;12.410;2022-11-18T07:46:42;0.10;;;0.10;;
23050;SDS011;11693;51.358;12.410;2022-11-18T07:49:09;0.10;;;0.10;;
23050;SDS011;11693;51.358;12.410;2022-11-18T07:51:38;0.10;;;0.10;;
23050;SDS011;11693;51.358;12.410;2022-11-18T07:54:05;0.10;;;0.10;;
23050;SDS011;11693;51.358;12.410;2022-11-18T07:56:31;0.17;;;0.17;;
23050;SDS011;11693;51.358;12.410;2022-11-18T07:58:57;0.10;;;0.10;;
23050;SDS011;11693;51.358;12.410;2022-11-18T08:01:23;0.10;;;0.10;;
23050;SDS011;11693;51.358;12.410;2022-11-18T08:03:52;0.10;;;0.10;;
23050;SDS011;11693;51.358;12.410;2022-11-18T08:06:18;0.10;;;0.10;;
23050;SDS011;11693;51.358;12.410;2022-11-18T08:08:44;0.10;;;0.10;;
23050;SDS011;11693;51.358;12.410;2022-11-18T08:11:11;0.10;;;0.10;;
23050;SDS011;11693;51.358;12.410;2022-11-18T08:13:41;0.10;;;0.10;;
23050;SDS011;11693;51.358;12.410;2022-11-18T08:16:15;0.20;;;0.20;;
23050;SDS011;11693;51.358;12.410;2022-11-18T08:18:42;0.10;;;0.10;;
23050;SDS011;11693;51.358;12.410;2022-11-18T08:21:08;0.10;;;0.10;;
23050;SDS011;11693;51.358;12.410;2022-11-18T08:23:34;0.20;;;0.20;;
23050;SDS011;11693;51.358;12.410;2022-11-18T08:26:04;0.10;;;0.10;;
23050;SDS011;11693;51.358;12.410;2022-11-18T08:28:32;0.20;;;0.20;;
23050;SDS011;11693;51.358;12.410;2022-11-18T08:30:58;0.10;;;0.10;;
23050;SDS011;11693;51.358;12.410;2022-11-18T08:33:24;0.10;;;0.10;;
23050;SDS011;11693;51.358;12.410;2022-11-18T08:35:49;0.20;;;0.20;;
23050;SDS011;11693;51.358;12.410;2022-11-18T08:38:16;0.20;;;0.20;;
23050;SDS011;11693;51.358;12.410;2022-11-18T08:40:42;0.20;;;0.20;;
23050;SDS011;11693;51.358;12.410;2022-11-18T08:43:10;0.20;;;0.20;;
23050;SDS011;11693;51.358;12.410;2022-11-18T08:45:37;0.20;;;0.20;;
23050;SDS011;11693;51.358;12.410;2022-11-18T08:48:03;0.20;;;0.20;;
23050;SDS011;11693;51.358;12.410;2022-11-18T08:50:29;0.20;;;0.20;;
23050;SDS011;11693;51.358;12.410;2022-11-18T08:52:54;0.20;;;0.20;;
23050;SDS011;11693;51.358;12.410;2022-11-18T08:55:20;0.10;;;0.10;;
23050;SDS011;11693;51.358;12.410;2022-11-18T08:57:46;0.10;;;0.10;;
23050;SDS011;11693;51.358;12.410;2022-11-18T09:00:12;0.20;;;0.20;;
23050;SDS011;11693;51.358;12.410;2022-11-18T09:02:38;0.20;;;0.20;;
23050;SDS011;11693;51.358;12.410;2022-11-18T09:05:04;0.20;;;0.20;;
23050;SDS011;11693;51.358;12.410;2022-11-18T09:07:30;0.20;;;0.20;;
23050;SDS011;11693;51.358;12.410;2022-11-18T09:09:55;0.20;;;0.20;;
23050;SDS011;11693;51.358;12.410;2022-11-18T09:12:21;0.20;;;0.20;;
23050;SDS011;11693;51.358;12.410;2022-11-18T09:14:46;0.20;;;0.20;;
23050;SDS011;11693;51.358;12.410;2022-11-18T09:17:12;0.20;;;0.20;;
23050;SDS011;11693;51.358;12.410;2022-11-18T09:19:39;0.20;;;0.20;;
23050;SDS011;11693;51.358;12.410;2022-11-18T09:22:05;0.20;;;0.20;;
23050;SDS011;11693;51.358;12.410;2022-11-18T09:24:32;0.10;;;0.10;;
23050;SDS011;11693;51.358;12.410;2022-11-18T09:26:58;0.10;;;0.10;;
23050;SDS011;11693;51.358;12.410;2022-11-18T09:29:26;0.20;;;0.20;;
23050;SDS011;11693;51.358;12.410;2022-11-18T09:31:52;0.20;;;0.20;;
23050;SDS011;11693;51.358;12.410;2022-11-18T09:34:18;0.20;;;0.20;;
23050;SDS011;11693;51.358;12.410;2022-11-18T09:36:43;0.20;;;0.20;;
23050;SDS011;11693;51.358;12.410;2022-11-18T09:39:09;0.20;;;0.20;;
23050;SDS011;11693;51.358;12.410;2022-11-18T09:41:45;0.20;;;0.20;;
23050;SDS011;11693;51.358;12.410;2022-11-18T09:49:50;0.22;;;0.22;;
23050;SDS011;11693;51.358;12.410;2022-11-18T09:55:00;0.20;;;0.20;;
23050;SDS011;11693;51.358;12.410;2022-11-18T09:57:49;0.20;;;0.20;;
23050;SDS011;11693;51.358;12.410;2022-11-18T10:05:47;0.20;;;0.20;;
23050;SDS011;11693;51.358;12.410;2022-11-18T10:08:21;0.20;;;0.20;;
23050;SDS011;11693;51.358;12.410;2022-11-18T10:11:02;0.20;;;0.20;;
23050;SDS011;11693;51.358;12.410;2022-11-18T10:24:24;0.20;;;0.20;;
23050;SDS011;11693;51.358;12.410;2022-11-18T10:26:55;0.20;;;0.20;;
23050;SDS011;11693;51.358;12.410;2022-11-18T10:29:22;0.20;;;0.20;;
23050;SDS011;11693;51.358;12.410;2022-11-18T10:31:52;0.20;;;0.20;;
23050;SDS011;11693;51.358;12.410;2022-11-18T10:34:22;0.20;;;0.20;;
23050;SDS011;11693;51.358;12.410;2022-11-18T10:37:05;0.20;;;0.20;;
23050;SDS011;11693;51.358;12.410;2022-11-18T10:39:32;0.20;;;0.20;;
23050;SDS011;11693;51.358;12.410;2022-11-18T10:42:02;0.20;;;0.20;;
23050;SDS011;11693;51.358;12.410;2022-11-18T10:44:38;0.20;;;0.20;;
23050;SDS011;11693;51.358;12.410;2022-11-18T10:47:18;0.20;;;0.20;;
23050;SDS011;11693;51.358;12.410;2022-11-18T10:49:56;0.30;;;0.30;;
23050;SDS011;11693;51.358;12.410;2022-11-18T10:52:24;0.30;;;0.30;;
23050;SDS011;11693;51.358;12.410;2022-11-18T10:57:33;0.20;;;0.20;;
23050;SDS011;11693;51.358;12.410;2022-11-18T11:00:01;0.20;;;0.20;;
23050;SDS011;11693;51.358;12.410;2022-11-18T11:02:45;0.20;;;0.20;;
23050;SDS011;11693;51.358;12.410;2022-11-18T11:05:15;0.23;;;0.23;;
23050;SDS011;11693;51.358;12.410;2022-11-18T11:07:50;0.20;;;0.20;;
23050;SDS011;11693;51.358;12.410;2022-11-18T11:10:29;0.30;;;0.30;;
23050;SDS011;11693;51.358;12.410;2022-11-18T11:12:56;0.20;;;0.20;;
23050;SDS011;11693;51.358;12.410;2022-11-18T11:21:16;0.20;;;0.20;;
23050;SDS011;11693;51.358;12.410;2022-11-18T11:23:49;0.20;;;0.20;;
23050;SDS011;11693;51.358;12.410;2022-11-18T11:31:48;0.20;;;0.20;;
23050;SDS011;11693;51.358;12.410;2022-11-18T11:37:10;0.20;;;0.20;;
23050;SDS011;11693;51.358;12.410;2022-11-18T11:48:15;0.30;;;0.30;;
23050;SDS011;11693;51.358;12.410;2022-11-18T11:50:55;0.20;;;0.20;;
23050;SDS011;11693;51.358;12.410;2022-11-18T11:56:15;0.20;;;0.20;;
23050;SDS011;11693;51.358;12.410;2022-11-18T12:04:14;0.15;;;0.15;;
23050;SDS011;11693;51.358;12.410;2022-11-18T12:06:51;0.20;;;0.20;;
23050;SDS011;11693;51.358;12.410;2022-11-18T12:15:18;0.20;;;0.20;;
23050;SDS011;11693;51.358;12.410;2022-11-18T12:18:28;0.20;;;0.20;;
23050;SDS011;11693;51.358;12.410;2022-11-18T12:21:01;0.20;;;0.20;;
23050;SDS011;11693;51.358;12.410;2022-11-18T12:23:30;0.30;;;0.30;;
23050;SDS011;11693;51.358;12.410;2022-11-18T12:28:31;0.20;;;0.20;;
23050;SDS011;11693;51.358;12.410;2022-11-18T12:38:55;0.30;;;0.30;;
23050;SDS011;11693;51.358;12.410;2022-11-18T12:44:25;0.30;;;0.30;;
23050;SDS011;11693;51.358;12.410;2022-11-18T12:46:53;0.30;;;0.30;;
23050;SDS011;11693;51.358;12.410;2022-11-18T12:51:46;0.20;;;0.20;;
23050;SDS011;11693;51.358;12.410;2022-11-18T12:54:20;0.20;;;0.20;;
23050;SDS011;11693;51.358;12.410;2022-11-18T12:56:50;0.20;;;0.20;;
23050;SDS011;11693;51.358;12.410;2022-11-18T12:59:16;0.25;;;0.25;;
23050;SDS011;11693;51.358;12.410;2022-11-18T13:02:02;0.30;;;0.30;;
23050;SDS011;11693;51.358;12.410;2022-11-18T13:05:01;0.30;;;0.30;;
23050;SDS011;11693;51.358;12.410;2022-11-18T13:07:30;0.30;;;0.30;;
23050;SDS011;11693;51.358;12.410;2022-11-18T13:10:22;0.30;;;0.30;;
23050;SDS011;11693;51.358;12.410;2022-11-18T13:12:51;0.22;;;0.22;;
23050;SDS011;11693;51.358;12.410;2022-11-18T13:15:18;0.20;;;0.20;;
23050;SDS011;11693;51.358;12.410;2022-11-18T13:18:09;0.22;;;0.22;;
23050;SDS011;11693;51.358;12.410;2022-11-18T13:20:40;0.30;;;0.30;;
23050;SDS011;11693;51.358;12.410;2022-11-18T13:26:04;0.30;;;0.30;;
23050;SDS011;11693;51.358;12.410;2022-11-18T13:28:36;0.20;;;0.20;;
23050;SDS011;11693;51.358;12.410;2022-11-18T13:33:43;0.20;;;0.20;;
23050;SDS011;11693;51.358;12.410;2022-11-18T13:36:19;0.30;;;0.30;;
23050;SDS011;11693;51.358;12.410;2022-11-18T13:41:23;0.30;;;0.30;;
23050;SDS011;11693;51.358;12.410;2022-11-18T13:44:08;0.30;;;0.30;;
23050;SDS011;11693;51.358;12.410;2022-11-18T13:46:37;0.20;;;0.20;;
23050;SDS011;11693;51.358;12.410;2022-11-18T13:49:04;0.20;;;0.20;;
23050;SDS011;11693;51.358;12.410;2022-11-18T13:51:30;0.20;;;0.20;;
23050;SDS011;11693;51.358;12.410;2022-11-18T13:53:56;0.22;;;0.22;;
23050;SDS011;11693;51.358;12.410;2022-11-18T13:56:23;0.30;;;0.30;;
23050;SDS011;11693;51.358;12.410;2022-11-18T13:58:54;0.20;;;0.20;;
23050;SDS011;11693;51.358;12.410;2022-11-18T14:01:28;0.20;;;0.20;;
23050;SDS011;11693;51.358;12.410;2022-11-18T14:03:59;0.20;;;0.20;;
23050;SDS011;11693;51.358;12.410;2022-11-18T14:06:40;0.25;;;0.25;;
23050;SDS011;11693;51.358;12.410;2022-11-18T14:09:20;0.30;;;0.30;;
23050;SDS011;11693;51.358;12.410;2022-11-18T14:12:01;0.30;;;0.30;;
23050;SDS011;11693;51.358;12.410;2022-11-18T14:14:39;0.20;;;0.20;;
23050;SDS011;11693;51.358;12.410;2022-11-18T14:19:49;0.30;;;0.30;;
23050;SDS011;11693;51.358;12.410;2022-11-18T14:22:20;0.30;;;0.30;;
23050;SDS011;11693;51.358;12.410;2022-11-18T14:25:00;0.30;;;0.30;;
23050;SDS011;11693;51.358;12.410;2022-11-18T14:27:49;0.30;;;0.30;;
23050;SDS011;11693;51.358;12.410;2022-11-18T14:30:26;0.20;;;0.20;;
23050;SDS011;11693;51.358;12.410;2022-11-18T14:38:50;0.30;;;0.30;;
23050;SDS011;11693;51.358;12.410;2022-11-18T14:41:17;0.30;;;0.30;;
23050;SDS011;11693;51.358;12.410;2022-11-18T14:44:03;0.30;;;0.30;;
23050;SDS011;11693;51.358;12.410;2022-11-18T14:46:29;0.30;;;0.30;;
23050;SDS011;11693;51.358;12.410;2022-11-18T14:48:56;0.20;;;0.20;;
23050;SDS011;11693;51.358;12.410;2022-11-18T14:51:22;0.20;;;0.20;;
23050;SDS011;11693;51.358;12.410;2022-11-18T14:53:48;0.30;;;0.30;;
23050;SDS011;11693;51.358;12.410;2022-11-18T14:56:16;0.28;;;0.28;;
23050;SDS011;11693;51.358;12.410;2022-11-18T14:58:48;0.30;;;0.30;;
23050;SDS011;11693;51.358;12.410;2022-11-18T15:01:13;0.20;;;0.20;;
23050;SDS011;11693;51.358;12.410;2022-11-18T15:03:39;0.20;;;0.20;;
23050;SDS011;11693;51.358;12.410;2022-11-18T15:06:11;0.20;;;0.20;;
23050;SDS011;11693;51.358;12.410;2022-11-18T15:08:39;0.30;;;0.30;;
23050;SDS011;11693;51.358;12.410;2022-11-18T15:11:04;0.30;;;0.30;;
23050;SDS011;11693;51.358;12.410;2022-11-18T15:13:32;0.20;;;0.20;;
23050;SDS011;11693;51.358;12.410;2022-11-18T15:15:57;0.20;;;0.20;;
23050;SDS011;11693;51.358;12.410;2022-11-18T15:18:23;0.20;;;0.20;;
23050;SDS011;11693;51.358;12.410;2022-11-18T15:20:49;0.30;;;0.30;;
23050;SDS011;11693;51.358;12.410;2022-11-18T15:23:16;0.20;;;0.20;;
23050;SDS011;11693;51.358;12.410;2022-11-18T15:25:41;0.20;;;0.20;;
23050;SDS011;11693;51.358;12.410;2022-11-18T15:28:10;0.20;;;0.20;;
23050;SDS011;11693;51.358;12.410;2022-11-18T15:30:36;0.30;;;0.30;;
23050;SDS011;11693;51.358;12.410;2022-11-18T15:33:03;0.30;;;0.30;;
23050;SDS011;11693;51.358;12.410;2022-11-18T15:35:28;0.20;;;0.20;;
23050;SDS011;11693;51.358;12.410;2022-11-18T15:37:54;0.20;;;0.20;;
23050;SDS011;11693;51.358;12.410;2022-11-18T15:40:19;0.20;;;0.20;;
23050;SDS011;11693;51.358;12.410;2022-11-18T15:42:45;0.30;;;0.30;;
23050;SDS011;11693;51.358;12.410;2022-11-18T15:45:10;0.30;;;0.30;;
23050;SDS011;11693;51.358;12.410;2022-11-18T15:47:36;0.20;;;0.20;;
23050;SDS011;11693;51.358;12.410;2022-11-18T15:50:02;0.20;;;0.20;;
23050;SDS011;11693;51.358;12.410;2022-11-18T15:52:27;0.20;;;0.20;;
23050;SDS011;11693;51.358;12.410;2022-11-18T15:54:53;0.30;;;0.30;;
23050;SDS011;11693;51.358;12.410;2022-11-18T15:57:19;0.30;;;0.30;;
23050;SDS011;11693;51.358;12.410;2022-11-18T15:59:45;0.20;;;0.20;;
23050;SDS011;11693;51.358;12.410;2022-11-18T16:02:11;0.20;;;0.20;;
23050;SDS011;11693;51.358;12.410;2022-11-18T16:04:36;0.30;;;0.30;;
23050;SDS011;11693;51.358;12.410;2022-11-18T16:07:03;0.30;;;0.30;;
23050;SDS011;11693;51.358;12.410;2022-11-18T16:09:29;0.30;;;0.30;;
23050;SDS011;11693;51.358;12.410;2022-11-18T16:12:15;0.20;;;0.20;;
23050;SDS011;11693;51.358;12.410;2022-11-18T16:14:59;0.30;;;0.30;;
23050;SDS011;11693;51.358;12.410;2022-11-18T16:17:43;0.30;;;0.30;;
23050;SDS011;11693;51.358;12.410;2022-11-18T16:20:09;0.22;;;0.22;;
23050;SDS011;11693;51.358;12.410;2022-11-18T16:22:35;0.30;;;0.30;;
23050;SDS011;11693;51.358;12.410;2022-11-18T16:25:00;0.20;;;0.20;;
23050;SDS011;11693;51.358;12.410;2022-11-18T16:27:26;0.20;;;0.20;;
23050;SDS011;11693;51.358;12.410;2022-11-18T16:29:52;0.20;;;0.20;;
23050;SDS011;11693;51.358;12.410;2022-11-18T16:32:17;0.30;;;0.30;;
23050;SDS011;11693;51.358;12.410;2022-11-18T16:34:43;0.30;;;0.30;;
23050;SDS011;11693;51.358;12.410;2022-11-18T16:37:08;0.30;;;0.30;;
23050;SDS011;11693;51.358;12.410;2022-11-18T16:39:34;0.20;;;0.20;;
23050;SDS011;11693;51.358;12.410;2022-11-18T16:42:00;0.20;;;0.20;;
23050;SDS011;11693;51.358;12.410;2022-11-18T16:44:27;0.20;;;0.20;;
23050;SDS011;11693;51.358;12.410;2022-11-18T16:46:53;0.30;;;0.30;;
23050;SDS011;11693;51.358;12.410;2022-11-18T16:49:21;0.20;;;0.20;;
23050;SDS011;11693;51.358;12.410;2022-11-18T16:51:49;0.20;;;0.20;;
23050;SDS011;11693;51.358;12.410;2022-11-18T16:54:17;0.20;;;0.20;;
23050;SDS011;11693;51.358;12.410;2022-11-18T16:56:44;0.28;;;0.28;;
23050;SDS011;11693;51.358;12.410;2022-11-18T16:59:15;0.30;;;0.30;;